Terminal Aerodrome Forecast
Issued by NWS

Home | Current Version | Previous Version | Text Only | Print | Product List | Glossary On
Versions: 1 2 3 4 5 6 7 8 9 10 11 12 13 14 15 16 17 18 19 20 21 22 23 24
233
FTUS43 KILX 231740 AAC
TAFCMI
TAF AMD
KCMI 231740Z 2318/2418 20006KT P6SM SCT025 BKN250
      TEMPO 2318/2321 BKN030
     FM240200 15004KT P6SM SCT035 BKN200
     FM240900 17005KT 4SM BR FEW045 BKN250
     FM241400 20009KT P6SM SCT030 BKN200=

USA.gov is the U.S. government's official web portal to all federal, state and local government web resources and services.